sensor_id;sensor_type;location;lat;lon;timestamp;P1;durP1;ratioP1;P2;durP2;ratioP2
3503;SDS011;1766;53.490;10.174;2023-02-10T00:01:43;44.33;;;17.27;;
3503;SDS011;1766;53.490;10.174;2023-02-10T00:03:45;42.23;;;18.07;;
3503;SDS011;1766;53.490;10.174;2023-02-10T00:05:47;44.47;;;18.70;;
3503;SDS011;1766;53.490;10.174;2023-02-10T00:07:49;46.13;;;17.90;;
3503;SDS011;1766;53.490;10.174;2023-02-10T00:09:51;36.10;;;18.00;;
3503;SDS011;1766;53.490;10.174;2023-02-10T00:11:53;41.07;;;17.17;;
3503;SDS011;1766;53.490;10.174;2023-02-10T00:13:59;41.53;;;16.87;;
3503;SDS011;1766;53.490;10.174;2023-02-10T00:16:01;37.90;;;18.27;;
3503;SDS011;1766;53.490;10.174;2023-02-10T00:18:06;47.10;;;18.80;;
3503;SDS011;1766;53.490;10.174;2023-02-10T00:20:08;41.50;;;18.20;;
3503;SDS011;1766;53.490;10.174;2023-02-10T00:22:11;37.63;;;16.70;;
3503;SDS011;1766;53.490;10.174;2023-02-10T00:24:13;39.00;;;16.87;;
3503;SDS011;1766;53.490;10.174;2023-02-10T00:26:14;40.80;;;18.73;;
3503;SDS011;1766;53.490;10.174;2023-02-10T00:28:16;41.27;;;18.53;;
3503;SDS011;1766;53.490;10.174;2023-02-10T00:30:18;43.97;;;18.27;;
3503;SDS011;1766;53.490;10.174;2023-02-10T00:32:20;41.67;;;18.07;;
3503;SDS011;1766;53.490;10.174;2023-02-10T00:34:23;49.03;;;18.83;;
3503;SDS011;1766;53.490;10.174;2023-02-10T00:36:25;39.77;;;17.23;;
3503;SDS011;1766;53.490;10.174;2023-02-10T00:38:27;44.33;;;18.63;;
3503;SDS011;1766;53.490;10.174;2023-02-10T00:40:29;44.87;;;19.23;;
3503;SDS011;1766;53.490;10.174;2023-02-10T00:42:31;45.37;;;18.33;;
3503;SDS011;1766;53.490;10.174;2023-02-10T00:44:32;40.27;;;17.73;;
3503;SDS011;1766;53.490;10.174;2023-02-10T00:46:34;38.20;;;17.00;;
3503;SDS011;1766;53.490;10.174;2023-02-10T00:48:36;41.10;;;17.70;;
3503;SDS011;1766;53.490;10.174;2023-02-10T00:50:39;36.13;;;17.47;;
3503;SDS011;1766;53.490;10.174;2023-02-10T00:52:41;38.60;;;17.23;;
3503;SDS011;1766;53.490;10.174;2023-02-10T00:54:43;19.70;;;9.20;;
3503;SDS011;1766;53.490;10.174;2023-02-10T00:56:45;45.10;;;18.43;;
3503;SDS011;1766;53.490;10.174;2023-02-10T00:58:46;42.77;;;17.77;;
3503;SDS011;1766;53.490;10.174;2023-02-10T01:00:49;50.50;;;18.23;;
3503;SDS011;1766;53.490;10.174;2023-02-10T01:02:51;42.90;;;18.33;;
3503;SDS011;1766;53.490;10.174;2023-02-10T01:04:52;47.03;;;19.07;;
3503;SDS011;1766;53.490;10.174;2023-02-10T01:06:56;50.43;;;19.60;;
3503;SDS011;1766;53.490;10.174;2023-02-10T01:08:57;39.70;;;16.67;;
3503;SDS011;1766;53.490;10.174;2023-02-10T01:11:00;43.00;;;19.67;;
3503;SDS011;1766;53.490;10.174;2023-02-10T01:13:03;42.87;;;16.73;;
3503;SDS011;1766;53.490;10.174;2023-02-10T01:15:08;42.27;;;17.90;;
3503;SDS011;1766;53.490;10.174;2023-02-10T01:17:09;37.37;;;18.03;;
3503;SDS011;1766;53.490;10.174;2023-02-10T01:19:11;37.13;;;17.60;;
3503;SDS011;1766;53.490;10.174;2023-02-10T01:21:14;37.80;;;18.03;;
3503;SDS011;1766;53.490;10.174;2023-02-10T01:23:18;39.23;;;18.53;;
3503;SDS011;1766;53.490;10.174;2023-02-10T01:25:20;39.57;;;17.90;;
3503;SDS011;1766;53.490;10.174;2023-02-10T01:27:28;43.10;;;18.53;;
3503;SDS011;1766;53.490;10.174;2023-02-10T01:29:31;40.37;;;18.17;;
3503;SDS011;1766;53.490;10.174;2023-02-10T01:31:32;41.80;;;18.43;;
3503;SDS011;1766;53.490;10.174;2023-02-10T01:33:34;38.37;;;17.30;;
3503;SDS011;1766;53.490;10.174;2023-02-10T01:35:37;41.40;;;17.57;;
3503;SDS011;1766;53.490;10.174;2023-02-10T01:37:39;37.80;;;17.83;;
3503;SDS011;1766;53.490;10.174;2023-02-10T01:39:42;43.43;;;18.10;;
3503;SDS011;1766;53.490;10.174;2023-02-10T01:41:44;37.27;;;17.23;;
3503;SDS011;1766;53.490;10.174;2023-02-10T01:43:55;39.83;;;16.97;;
3503;SDS011;1766;53.490;10.174;2023-02-10T01:46:00;38.47;;;17.70;;
3503;SDS011;1766;53.490;10.174;2023-02-10T01:48:02;38.53;;;16.30;;
3503;SDS011;1766;53.490;10.174;2023-02-10T01:50:06;37.23;;;17.10;;
3503;SDS011;1766;53.490;10.174;2023-02-10T01:52:09;38.97;;;16.53;;
3503;SDS011;1766;53.490;10.174;2023-02-10T01:54:15;42.40;;;17.57;;
3503;SDS011;1766;53.490;10.174;2023-02-10T01:56:22;42.03;;;16.30;;
3503;SDS011;1766;53.490;10.174;2023-02-10T01:58:25;36.40;;;13.23;;
3503;SDS011;1766;53.490;10.174;2023-02-10T02:00:31;44.93;;;18.03;;
3503;SDS011;1766;53.490;10.174;2023-02-10T02:02:33;45.07;;;16.17;;
3503;SDS011;1766;53.490;10.174;2023-02-10T02:04:35;34.53;;;14.27;;
3503;SDS011;1766;53.490;10.174;2023-02-10T02:06:41;39.43;;;16.87;;
3503;SDS011;1766;53.490;10.174;2023-02-10T02:08:43;33.97;;;16.47;;
3503;SDS011;1766;53.490;10.174;2023-02-10T02:10:50;48.43;;;18.27;;
3503;SDS011;1766;53.490;10.174;2023-02-10T02:13:03;36.37;;;14.30;;
3503;SDS011;1766;53.490;10.174;2023-02-10T02:15:12;34.63;;;16.03;;
3503;SDS011;1766;53.490;10.174;2023-02-10T02:17:24;35.57;;;15.90;;
3503;SDS011;1766;53.490;10.174;2023-02-10T02:19:42;35.13;;;14.83;;
3503;SDS011;1766;53.490;10.174;2023-02-10T02:22:21;36.30;;;13.87;;
3503;SDS011;1766;53.490;10.174;2023-02-10T02:24:48;37.90;;;15.47;;
3503;SDS011;1766;53.490;10.174;2023-02-10T02:27:15;29.97;;;14.03;;
3503;SDS011;1766;53.490;10.174;2023-02-10T02:29:51;41.93;;;15.90;;
3503;SDS011;1766;53.490;10.174;2023-02-10T02:32:18;38.00;;;14.70;;
3503;SDS011;1766;53.490;10.174;2023-02-10T02:34:21;34.13;;;13.33;;
3503;SDS011;1766;53.490;10.174;2023-02-10T02:36:32;30.83;;;12.73;;
3503;SDS011;1766;53.490;10.174;2023-02-10T02:38:38;34.50;;;13.43;;
3503;SDS011;1766;53.490;10.174;2023-02-10T02:40:41;36.80;;;14.10;;
3503;SDS011;1766;53.490;10.174;2023-02-10T02:42:42;35.23;;;14.97;;
3503;SDS011;1766;53.490;10.174;2023-02-10T02:44:45;37.70;;;15.27;;
3503;SDS011;1766;53.490;10.174;2023-02-10T02:46:51;29.47;;;12.67;;
3503;SDS011;1766;53.490;10.174;2023-02-10T02:49:05;34.77;;;14.37;;
3503;SDS011;1766;53.490;10.174;2023-02-10T02:51:16;34.77;;;14.13;;
3503;SDS011;1766;53.490;10.174;2023-02-10T02:53:35;33.00;;;13.37;;
3503;SDS011;1766;53.490;10.174;2023-02-10T02:55:46;35.60;;;13.10;;
3503;SDS011;1766;53.490;10.174;2023-02-10T02:58:01;28.00;;;12.40;;
3503;SDS011;1766;53.490;10.174;2023-02-10T03:02:12;30.50;;;14.00;;
3503;SDS011;1766;53.490;10.174;2023-02-10T03:04:16;27.60;;;13.03;;
3503;SDS011;1766;53.490;10.174;2023-02-10T03:06:19;33.17;;;14.67;;
3503;SDS011;1766;53.490;10.174;2023-02-10T03:08:21;33.27;;;13.97;;
3503;SDS011;1766;53.490;10.174;2023-02-10T03:10:23;29.47;;;13.63;;
3503;SDS011;1766;53.490;10.174;2023-02-10T03:12:26;32.33;;;14.10;;
3503;SDS011;1766;53.490;10.174;2023-02-10T03:14:28;36.43;;;14.37;;
3503;SDS011;1766;53.490;10.174;2023-02-10T03:16:30;37.40;;;15.57;;
3503;SDS011;1766;53.490;10.174;2023-02-10T03:18:32;36.00;;;14.20;;
3503;SDS011;1766;53.490;10.174;2023-02-10T03:20:35;41.23;;;16.47;;
3503;SDS011;1766;53.490;10.174;2023-02-10T03:22:37;32.57;;;12.47;;
3503;SDS011;1766;53.490;10.174;2023-02-10T03:24:38;37.20;;;15.10;;
3503;SDS011;1766;53.490;10.174;2023-02-10T03:26:40;33.73;;;15.47;;
3503;SDS011;1766;53.490;10.174;2023-02-10T03:28:42;36.87;;;14.20;;
3503;SDS011;1766;53.490;10.174;2023-02-10T03:30:44;37.20;;;15.27;;
3503;SDS011;1766;53.490;10.174;2023-02-10T03:32:50;38.30;;;15.13;;
3503;SDS011;1766;53.490;10.174;2023-02-10T03:34:53;35.67;;;15.80;;
3503;SDS011;1766;53.490;10.174;2023-02-10T03:36:56;35.23;;;16.50;;
3503;SDS011;1766;53.490;10.174;2023-02-10T03:38:58;40.60;;;15.73;;
3503;SDS011;1766;53.490;10.174;2023-02-10T03:41:00;35.83;;;14.97;;
3503;SDS011;1766;53.490;10.174;2023-02-10T03:43:01;40.53;;;16.87;;
3503;SDS011;1766;53.490;10.174;2023-02-10T03:45:04;42.10;;;16.53;;
3503;SDS011;1766;53.490;10.174;2023-02-10T03:47:06;38.20;;;15.37;;
3503;SDS011;1766;53.490;10.174;2023-02-10T03:49:08;35.47;;;16.57;;
3503;SDS011;1766;53.490;10.174;2023-02-10T03:51:10;28.33;;;15.20;;
3503;SDS011;1766;53.490;10.174;2023-02-10T03:53:14;35.27;;;17.30;;
3503;SDS011;1766;53.490;10.174;2023-02-10T03:55:16;36.27;;;17.00;;
3503;SDS011;1766;53.490;10.174;2023-02-10T03:57:19;45.20;;;17.60;;
3503;SDS011;1766;53.490;10.174;2023-02-10T03:59:21;40.60;;;18.17;;
3503;SDS011;1766;53.490;10.174;2023-02-10T04:01:22;37.70;;;17.03;;
3503;SDS011;1766;53.490;10.174;2023-02-10T04:03:24;43.10;;;18.27;;
3503;SDS011;1766;53.490;10.174;2023-02-10T04:05:26;45.13;;;19.00;;
3503;SDS011;1766;53.490;10.174;2023-02-10T04:07:28;39.70;;;18.53;;
3503;SDS011;1766;53.490;10.174;2023-02-10T04:09:31;45.07;;;17.70;;
3503;SDS011;1766;53.490;10.174;2023-02-10T04:11:33;40.43;;;18.87;;
3503;SDS011;1766;53.490;10.174;2023-02-10T04:13:35;45.57;;;18.33;;
3503;SDS011;1766;53.490;10.174;2023-02-10T04:15:37;52.80;;;18.77;;
3503;SDS011;1766;53.490;10.174;2023-02-10T04:17:39;46.97;;;19.20;;
3503;SDS011;1766;53.490;10.174;2023-02-10T04:19:40;44.27;;;18.93;;
3503;SDS011;1766;53.490;10.174;2023-02-10T04:21:42;38.87;;;17.60;;
3503;SDS011;1766;53.490;10.174;2023-02-10T04:23:44;50.60;;;20.20;;
3503;SDS011;1766;53.490;10.174;2023-02-10T04:26:03;44.63;;;20.77;;
3503;SDS011;1766;53.490;10.174;2023-02-10T04:28:05;51.37;;;21.33;;
3503;SDS011;1766;53.490;10.174;2023-02-10T04:30:08;56.13;;;21.50;;
3503;SDS011;1766;53.490;10.174;2023-02-10T04:32:11;55.67;;;21.97;;
3503;SDS011;1766;53.490;10.174;2023-02-10T04:34:13;33.17;;;14.37;;
3503;SDS011;1766;53.490;10.174;2023-02-10T04:36:15;46.07;;;21.23;;
3503;SDS011;1766;53.490;10.174;2023-02-10T04:38:16;49.77;;;20.97;;
3503;SDS011;1766;53.490;10.174;2023-02-10T04:40:19;44.70;;;21.17;;
3503;SDS011;1766;53.490;10.174;2023-02-10T04:42:23;46.93;;;20.63;;
3503;SDS011;1766;53.490;10.174;2023-02-10T04:44:29;37.73;;;17.37;;
3503;SDS011;1766;53.490;10.174;2023-02-10T04:46:31;54.37;;;21.40;;
3503;SDS011;1766;53.490;10.174;2023-02-10T04:48:33;45.53;;;20.97;;
3503;SDS011;1766;53.490;10.174;2023-02-10T04:50:35;46.13;;;20.17;;
3503;SDS011;1766;53.490;10.174;2023-02-10T04:52:38;41.63;;;20.53;;
3503;SDS011;1766;53.490;10.174;2023-02-10T04:54:40;47.33;;;20.47;;
3503;SDS011;1766;53.490;10.174;2023-02-10T04:56:42;40.00;;;20.90;;
3503;SDS011;1766;53.490;10.174;2023-02-10T04:58:45;46.13;;;21.37;;
3503;SDS011;1766;53.490;10.174;2023-02-10T05:00:47;57.37;;;22.40;;
3503;SDS011;1766;53.490;10.174;2023-02-10T05:02:49;52.33;;;22.13;;
3503;SDS011;1766;53.490;10.174;2023-02-10T05:04:51;56.27;;;21.77;;
3503;SDS011;1766;53.490;10.174;2023-02-10T05:06:53;44.63;;;20.83;;
3503;SDS011;1766;53.490;10.174;2023-02-10T05:08:58;55.20;;;23.00;;
3503;SDS011;1766;53.490;10.174;2023-02-10T05:10:59;52.33;;;21.53;;
3503;SDS011;1766;53.490;10.174;2023-02-10T05:13:02;50.90;;;21.73;;
3503;SDS011;1766;53.490;10.174;2023-02-10T05:15:05;55.07;;;20.57;;
3503;SDS011;1766;53.490;10.174;2023-02-10T05:17:08;51.23;;;19.93;;
3503;SDS011;1766;53.490;10.174;2023-02-10T05:19:10;54.63;;;23.17;;
3503;SDS011;1766;53.490;10.174;2023-02-10T05:21:13;51.33;;;22.03;;
3503;SDS011;1766;53.490;10.174;2023-02-10T05:23:15;51.83;;;21.93;;
3503;SDS011;1766;53.490;10.174;2023-02-10T05:25:17;61.90;;;22.10;;
3503;SDS011;1766;53.490;10.174;2023-02-10T05:27:19;57.60;;;23.07;;
3503;SDS011;1766;53.490;10.174;2023-02-10T05:29:20;53.97;;;21.93;;
3503;SDS011;1766;53.490;10.174;2023-02-10T05:31:24;57.37;;;24.47;;
3503;SDS011;1766;53.490;10.174;2023-02-10T05:33:25;55.00;;;23.40;;
3503;SDS011;1766;53.490;10.174;2023-02-10T05:35:27;64.13;;;24.27;;
3503;SDS011;1766;53.490;10.174;2023-02-10T05:37:30;67.33;;;28.97;;
3503;SDS011;1766;53.490;10.174;2023-02-10T05:39:32;59.73;;;25.43;;
3503;SDS011;1766;53.490;10.174;2023-02-10T05:41:39;45.00;;;23.57;;
3503;SDS011;1766;53.490;10.174;2023-02-10T05:43:42;48.60;;;23.77;;
3503;SDS011;1766;53.490;10.174;2023-02-10T05:45:45;49.67;;;23.57;;
3503;SDS011;1766;53.490;10.174;2023-02-10T05:47:49;54.07;;;23.03;;
3503;SDS011;1766;53.490;10.174;2023-02-10T05:49:51;51.60;;;23.57;;
3503;SDS011;1766;53.490;10.174;2023-02-10T05:51:53;67.27;;;23.97;;
3503;SDS011;1766;53.490;10.174;2023-02-10T05:53:55;49.77;;;23.13;;
3503;SDS011;1766;53.490;10.174;2023-02-10T05:55:57;53.33;;;22.97;;
3503;SDS011;1766;53.490;10.174;2023-02-10T05:57:59;51.83;;;23.43;;
3503;SDS011;1766;53.490;10.174;2023-02-10T06:00:00;57.83;;;23.30;;
3503;SDS011;1766;53.490;10.174;2023-02-10T06:02:04;75.73;;;35.43;;
3503;SDS011;1766;53.490;10.174;2023-02-10T06:04:07;70.87;;;31.00;;
3503;SDS011;1766;53.490;10.174;2023-02-10T06:06:09;56.63;;;24.57;;
3503;SDS011;1766;53.490;10.174;2023-02-10T06:08:11;57.97;;;23.83;;
3503;SDS011;1766;53.490;10.174;2023-02-10T06:10:13;48.03;;;22.23;;
3503;SDS011;1766;53.490;10.174;2023-02-10T06:12:15;59.00;;;23.63;;
3503;SDS011;1766;53.490;10.174;2023-02-10T06:14:17;46.23;;;21.77;;
3503;SDS011;1766;53.490;10.174;2023-02-10T06:16:19;52.70;;;23.00;;
3503;SDS011;1766;53.490;10.174;2023-02-10T06:18:21;53.30;;;23.30;;
3503;SDS011;1766;53.490;10.174;2023-02-10T06:20:25;52.17;;;23.57;;
3503;SDS011;1766;53.490;10.174;2023-02-10T06:22:26;48.30;;;22.87;;
3503;SDS011;1766;53.490;10.174;2023-02-10T06:24:28;52.17;;;22.30;;
3503;SDS011;1766;53.490;10.174;2023-02-10T06:26:31;52.90;;;22.80;;
3503;SDS011;1766;53.490;10.174;2023-02-10T06:28:32;47.10;;;22.00;;
3503;SDS011;1766;53.490;10.174;2023-02-10T06:30:34;59.17;;;22.50;;
3503;SDS011;1766;53.490;10.174;2023-02-10T06:32:36;58.10;;;23.50;;
3503;SDS011;1766;53.490;10.174;2023-02-10T06:34:38;49.70;;;21.30;;
3503;SDS011;1766;53.490;10.174;2023-02-10T06:36:42;62.63;;;27.07;;
3503;SDS011;1766;53.490;10.174;2023-02-10T06:38:44;57.37;;;24.30;;
3503;SDS011;1766;53.490;10.174;2023-02-10T06:40:47;53.67;;;21.87;;
3503;SDS011;1766;53.490;10.174;2023-02-10T06:42:49;52.63;;;22.33;;
3503;SDS011;1766;53.490;10.174;2023-02-10T06:44:51;41.67;;;22.07;;
3503;SDS011;1766;53.490;10.174;2023-02-10T06:46:53;53.67;;;23.30;;
3503;SDS011;1766;53.490;10.174;2023-02-10T06:48:55;49.00;;;22.30;;
3503;SDS011;1766;53.490;10.174;2023-02-10T06:50:56;45.53;;;23.60;;
3503;SDS011;1766;53.490;10.174;2023-02-10T06:52:59;61.53;;;22.27;;
3503;SDS011;1766;53.490;10.174;2023-02-10T06:55:01;55.27;;;21.93;;
3503;SDS011;1766;53.490;10.174;2023-02-10T06:57:04;51.27;;;21.40;;
3503;SDS011;1766;53.490;10.174;2023-02-10T06:59:06;49.83;;;20.93;;
3503;SDS011;1766;53.490;10.174;2023-02-10T07:01:08;71.87;;;32.07;;
3503;SDS011;1766;53.490;10.174;2023-02-10T07:03:13;61.00;;;29.30;;
3503;SDS011;1766;53.490;10.174;2023-02-10T07:05:15;50.80;;;22.13;;
3503;SDS011;1766;53.490;10.174;2023-02-10T07:07:17;55.73;;;21.70;;
3503;SDS011;1766;53.490;10.174;2023-02-10T07:09:20;49.30;;;19.77;;
3503;SDS011;1766;53.490;10.174;2023-02-10T07:11:23;46.73;;;21.30;;
3503;SDS011;1766;53.490;10.174;2023-02-10T07:13:25;55.23;;;21.17;;
3503;SDS011;1766;53.490;10.174;2023-02-10T07:15:27;48.90;;;21.43;;
3503;SDS011;1766;53.490;10.174;2023-02-10T07:17:29;44.00;;;19.57;;
3503;SDS011;1766;53.490;10.174;2023-02-10T07:19:33;47.93;;;20.73;;
3503;SDS011;1766;53.490;10.174;2023-02-10T07:21:35;47.23;;;22.47;;
3503;SDS011;1766;53.490;10.174;2023-02-10T07:23:38;49.33;;;20.73;;
3503;SDS011;1766;53.490;10.174;2023-02-10T07:25:41;46.73;;;20.47;;
3503;SDS011;1766;53.490;10.174;2023-02-10T07:27:43;40.60;;;19.23;;
3503;SDS011;1766;53.490;10.174;2023-02-10T07:29:45;47.60;;;20.33;;
3503;SDS011;1766;53.490;10.174;2023-02-10T07:31:48;56.47;;;21.03;;
3503;SDS011;1766;53.490;10.174;2023-02-10T07:33:50;52.33;;;20.07;;
3503;SDS011;1766;53.490;10.174;2023-02-10T07:35:52;56.23;;;21.93;;
3503;SDS011;1766;53.490;10.174;2023-02-10T07:37:54;43.17;;;19.83;;
3503;SDS011;1766;53.490;10.174;2023-02-10T07:39:56;47.87;;;20.30;;
3503;SDS011;1766;53.490;10.174;2023-02-10T07:42:00;54.47;;;21.57;;
3503;SDS011;1766;53.490;10.174;2023-02-10T07:44:01;49.13;;;23.10;;
3503;SDS011;1766;53.490;10.174;2023-02-10T07:46:04;50.97;;;24.17;;
3503;SDS011;1766;53.490;10.174;2023-02-10T07:48:06;52.73;;;20.73;;
3503;SDS011;1766;53.490;10.174;2023-02-10T07:50:08;51.90;;;22.10;;
3503;SDS011;1766;53.490;10.174;2023-02-10T07:52:10;42.83;;;20.70;;
3503;SDS011;1766;53.490;10.174;2023-02-10T07:54:11;52.80;;;22.47;;
3503;SDS011;1766;53.490;10.174;2023-02-10T07:56:13;49.23;;;21.43;;
3503;SDS011;1766;53.490;10.174;2023-02-10T07:58:17;51.20;;;23.07;;
3503;SDS011;1766;53.490;10.174;2023-02-10T08:00:19;87.90;;;35.60;;
3503;SDS011;1766;53.490;10.174;2023-02-10T08:02:21;72.03;;;32.33;;
3503;SDS011;1766;53.490;10.174;2023-02-10T08:04:22;55.53;;;22.83;;
3503;SDS011;1766;53.490;10.174;2023-02-10T08:06:25;50.87;;;22.57;;
3503;SDS011;1766;53.490;10.174;2023-02-10T08:08:27;47.90;;;20.53;;
3503;SDS011;1766;53.490;10.174;2023-02-10T08:10:29;51.90;;;22.07;;
3503;SDS011;1766;53.490;10.174;2023-02-10T08:12:31;60.80;;;25.13;;
3503;SDS011;1766;53.490;10.174;2023-02-10T08:14:35;57.87;;;24.23;;
3503;SDS011;1766;53.490;10.174;2023-02-10T08:16:36;40.00;;;17.77;;
3503;SDS011;1766;53.490;10.174;2023-02-10T08:18:38;60.20;;;26.00;;
3503;SDS011;1766;53.490;10.174;2023-02-10T08:20:41;53.33;;;20.10;;
3503;SDS011;1766;53.490;10.174;2023-02-10T08:22:43;50.57;;;22.07;;
3503;SDS011;1766;53.490;10.174;2023-02-10T08:24:44;43.43;;;19.57;;
3503;SDS011;1766;53.490;10.174;2023-02-10T08:26:46;52.43;;;20.70;;
3503;SDS011;1766;53.490;10.174;2023-02-10T08:28:48;42.90;;;21.43;;
3503;SDS011;1766;53.490;10.174;2023-02-10T08:30:52;44.10;;;20.40;;
3503;SDS011;1766;53.490;10.174;2023-02-10T08:32:54;46.53;;;19.77;;
3503;SDS011;1766;53.490;10.174;2023-02-10T08:34:56;42.90;;;19.87;;
3503;SDS011;1766;53.490;10.174;2023-02-10T08:36:59;46.03;;;19.40;;
3503;SDS011;1766;53.490;10.174;2023-02-10T08:39:01;42.37;;;19.20;;
3503;SDS011;1766;53.490;10.174;2023-02-10T08:41:03;42.13;;;19.13;;
3503;SDS011;1766;53.490;10.174;2023-02-10T08:43:06;47.57;;;20.13;;
3503;SDS011;1766;53.490;10.174;2023-02-10T08:45:08;45.23;;;20.23;;
3503;SDS011;1766;53.490;10.174;2023-02-10T08:47:11;46.03;;;19.00;;
3503;SDS011;1766;53.490;10.174;2023-02-10T08:49:14;41.57;;;19.53;;
3503;SDS011;1766;53.490;10.174;2023-02-10T08:51:16;44.03;;;18.13;;
3503;SDS011;1766;53.490;10.174;2023-02-10T08:53:19;39.60;;;17.97;;
3503;SDS011;1766;53.490;10.174;2023-02-10T08:55:21;41.53;;;20.27;;
3503;SDS011;1766;53.490;10.174;2023-02-10T08:57:23;46.03;;;20.20;;
3503;SDS011;1766;53.490;10.174;2023-02-10T08:59:25;50.93;;;19.23;;
3503;SDS011;1766;53.490;10.174;2023-02-10T09:01:27;41.40;;;18.10;;
3503;SDS011;1766;53.490;10.174;2023-02-10T09:03:30;42.20;;;18.63;;
3503;SDS011;1766;53.490;10.174;2023-02-10T09:05:34;41.80;;;19.37;;
3503;SDS011;1766;53.490;10.174;2023-02-10T09:07:36;36.90;;;17.73;;
3503;SDS011;1766;53.490;10.174;2023-02-10T09:09:39;39.97;;;18.53;;
3503;SDS011;1766;53.490;10.174;2023-02-10T09:11:43;46.77;;;19.77;;
3503;SDS011;1766;53.490;10.174;2023-02-10T09:13:45;41.60;;;18.07;;
3503;SDS011;1766;53.490;10.174;2023-02-10T09:15:47;44.70;;;17.20;;
3503;SDS011;1766;53.490;10.174;2023-02-10T09:17:50;43.03;;;18.70;;
3503;SDS011;1766;53.490;10.174;2023-02-10T09:19:53;40.50;;;17.57;;
3503;SDS011;1766;53.490;10.174;2023-02-10T09:21:55;46.10;;;18.87;;
3503;SDS011;1766;53.490;10.174;2023-02-10T09:23:57;43.90;;;18.47;;
3503;SDS011;1766;53.490;10.174;2023-02-10T09:25:59;45.73;;;19.70;;
3503;SDS011;1766;53.490;10.174;2023-02-10T09:28:01;47.03;;;19.63;;
3503;SDS011;1766;53.490;10.174;2023-02-10T09:30:04;44.27;;;19.40;;
3503;SDS011;1766;53.490;10.174;2023-02-10T09:32:06;51.63;;;21.30;;
3503;SDS011;1766;53.490;10.174;2023-02-10T09:34:10;46.57;;;21.00;;
3503;SDS011;1766;53.490;10.174;2023-02-10T09:36:14;43.10;;;18.80;;
3503;SDS011;1766;53.490;10.174;2023-02-10T09:38:19;47.17;;;20.77;;
3503;SDS011;1766;53.490;10.174;2023-02-10T09:40:22;51.93;;;20.60;;
3503;SDS011;1766;53.490;10.174;2023-02-10T09:42:29;49.07;;;19.77;;
3503;SDS011;1766;53.490;10.174;2023-02-10T09:44:48;48.30;;;19.53;;
3503;SDS011;1766;53.490;10.174;2023-02-10T09:47:04;48.47;;;21.50;;
3503;SDS011;1766;53.490;10.174;2023-02-10T09:49:28;44.07;;;20.63;;
3503;SDS011;1766;53.490;10.174;2023-02-10T09:51:50;50.53;;;21.30;;
3503;SDS011;1766;53.490;10.174;2023-02-10T09:54:00;50.27;;;22.20;;
3503;SDS011;1766;53.490;10.174;2023-02-10T09:56:03;43.90;;;20.30;;
3503;SDS011;1766;53.490;10.174;2023-02-10T09:58:11;49.33;;;21.07;;
3503;SDS011;1766;53.490;10.174;2023-02-10T10:00:23;53.47;;;20.80;;
3503;SDS011;1766;53.490;10.174;2023-02-10T10:02:31;50.77;;;21.33;;
3503;SDS011;1766;53.490;10.174;2023-02-10T10:04:35;42.57;;;18.33;;
3503;SDS011;1766;53.490;10.174;2023-02-10T10:06:39;48.00;;;18.63;;
3503;SDS011;1766;53.490;10.174;2023-02-10T10:08:47;41.30;;;19.23;;
3503;SDS011;1766;53.490;10.174;2023-02-10T10:11:01;49.53;;;20.10;;
3503;SDS011;1766;53.490;10.174;2023-02-10T10:13:18;42.17;;;19.20;;
3503;SDS011;1766;53.490;10.174;2023-02-10T10:15:26;45.77;;;19.17;;
3503;SDS011;1766;53.490;10.174;2023-02-10T10:17:43;49.73;;;20.13;;
3503;SDS011;1766;53.490;10.174;2023-02-10T10:20:03;45.97;;;19.57;;
3503;SDS011;1766;53.490;10.174;2023-02-10T10:22:30;45.90;;;20.13;;
3503;SDS011;1766;53.490;10.174;2023-02-10T10:24:45;44.07;;;18.77;;
3503;SDS011;1766;53.490;10.174;2023-02-10T10:27:19;58.93;;;20.47;;
3503;SDS011;1766;53.490;10.174;2023-02-10T10:29:36;45.87;;;19.73;;
3503;SDS011;1766;53.490;10.174;2023-02-10T10:31:44;46.63;;;20.43;;
3503;SDS011;1766;53.490;10.174;2023-02-10T10:33:49;49.07;;;21.63;;
3503;SDS011;1766;53.490;10.174;2023-02-10T10:35:55;54.00;;;19.83;;
3503;SDS011;1766;53.490;10.174;2023-02-10T10:38:04;53.50;;;26.30;;
3503;SDS011;1766;53.490;10.174;2023-02-10T10:40:16;77.10;;;36.23;;
3503;SDS011;1766;53.490;10.174;2023-02-10T10:42:23;47.97;;;21.87;;
3503;SDS011;1766;53.490;10.174;2023-02-10T10:44:29;44.83;;;20.47;;
3503;SDS011;1766;53.490;10.174;2023-02-10T10:46:36;51.57;;;20.13;;
3503;SDS011;1766;53.490;10.174;2023-02-10T10:48:43;44.33;;;20.20;;
3503;SDS011;1766;53.490;10.174;2023-02-10T10:50:45;49.67;;;22.23;;
3503;SDS011;1766;53.490;10.174;2023-02-10T10:52:48;47.93;;;20.47;;
3503;SDS011;1766;53.490;10.174;2023-02-10T10:54:52;43.17;;;21.13;;
3503;SDS011;1766;53.490;10.174;2023-02-10T10:56:56;41.07;;;20.57;;
3503;SDS011;1766;53.490;10.174;2023-02-10T10:59:10;40.73;;;20.07;;
3503;SDS011;1766;53.490;10.174;2023-02-10T11:01:15;46.47;;;20.83;;
3503;SDS011;1766;53.490;10.174;2023-02-10T11:03:19;44.60;;;18.97;;
3503;SDS011;1766;53.490;10.174;2023-02-10T11:05:21;44.43;;;20.60;;
3503;SDS011;1766;53.490;10.174;2023-02-10T11:07:27;45.27;;;21.20;;
3503;SDS011;1766;53.490;10.174;2023-02-10T11:09:35;37.60;;;20.17;;
3503;SDS011;1766;53.490;10.174;2023-02-10T11:11:43;41.97;;;20.23;;
3503;SDS011;1766;53.490;10.174;2023-02-10T11:13:50;44.00;;;19.73;;
3503;SDS011;1766;53.490;10.174;2023-02-10T11:15:59;43.53;;;20.53;;
3503;SDS011;1766;53.490;10.174;2023-02-10T11:18:05;44.33;;;20.90;;
3503;SDS011;1766;53.490;10.174;2023-02-10T11:20:21;43.47;;;20.33;;
3503;SDS011;1766;53.490;10.174;2023-02-10T11:22:26;41.77;;;19.17;;
3503;SDS011;1766;53.490;10.174;2023-02-10T11:24:29;43.17;;;19.20;;
3503;SDS011;1766;53.490;10.174;2023-02-10T11:26:34;35.73;;;18.90;;
3503;SDS011;1766;53.490;10.174;2023-02-10T11:28:36;39.47;;;18.37;;
3503;SDS011;1766;53.490;10.174;2023-02-10T11:30:39;45.77;;;19.13;;
3503;SDS011;1766;53.490;10.174;2023-02-10T11:32:41;36.33;;;18.57;;
3503;SDS011;1766;53.490;10.174;2023-02-10T11:34:43;34.60;;;17.93;;
3503;SDS011;1766;53.490;10.174;2023-02-10T11:36:49;39.23;;;18.50;;
3503;SDS011;1766;53.490;10.174;2023-02-10T11:38:57;70.43;;;35.90;;
3503;SDS011;1766;53.490;10.174;2023-02-10T11:41:02;38.93;;;17.00;;
3503;SDS011;1766;53.490;10.174;2023-02-10T11:43:10;34.77;;;16.47;;
3503;SDS011;1766;53.490;10.174;2023-02-10T11:45:16;31.40;;;15.57;;
3503;SDS011;1766;53.490;10.174;2023-02-10T11:47:22;21.63;;;12.20;;
3503;SDS011;1766;53.490;10.174;2023-02-10T11:49:26;25.30;;;12.37;;
3503;SDS011;1766;53.490;10.174;2023-02-10T11:51:31;25.80;;;11.93;;
3503;SDS011;1766;53.490;10.174;2023-02-10T11:53:34;24.13;;;11.60;;
3503;SDS011;1766;53.490;10.174;2023-02-10T11:55:41;25.07;;;11.63;;
3503;SDS011;1766;53.490;10.174;2023-02-10T11:57:51;21.00;;;11.87;;
3503;SDS011;1766;53.490;10.174;2023-02-10T12:00:17;24.90;;;11.27;;
3503;SDS011;1766;53.490;10.174;2023-02-10T12:02:32;22.23;;;9.83;;
3503;SDS011;1766;53.490;10.174;2023-02-10T12:04:55;22.03;;;10.33;;
3503;SDS011;1766;53.490;10.174;2023-02-10T12:07:10;16.80;;;9.33;;
3503;SDS011;1766;53.490;10.174;2023-02-10T12:09:24;21.60;;;9.60;;
3503;SDS011;1766;53.490;10.174;2023-02-10T12:11:33;20.40;;;9.77;;
3503;SDS011;1766;53.490;10.174;2023-02-10T12:13:47;22.43;;;9.47;;
3503;SDS011;1766;53.490;10.174;2023-02-10T12:15:58;23.37;;;8.57;;
3503;SDS011;1766;53.490;10.174;2023-02-10T12:18:20;22.53;;;9.97;;
3503;SDS011;1766;53.490;10.174;2023-02-10T12:20:38;18.63;;;9.07;;
3503;SDS011;1766;53.490;10.174;2023-02-10T12:23:00;19.10;;;8.23;;
3503;SDS011;1766;53.490;10.174;2023-02-10T12:25:17;22.30;;;9.47;;